sensor_id;sensor_type;location;lat;lon;timestamp;P1;durP1;ratioP1;P2;durP2;ratioP2
45354;SDS011;31091;48.758;9.150;2024-03-06T03:14:25;4.07;;;2.72;;
45354;SDS011;31091;48.758;9.150;2024-03-06T03:17:11;3.70;;;1.70;;
45354;SDS011;31091;48.758;9.150;2024-03-06T03:19:59;3.70;;;2.05;;
45354;SDS011;31091;48.758;9.150;2024-03-06T03:22:44;4.05;;;2.20;;
45354;SDS011;31091;48.758;9.150;2024-03-06T03:28:52;4.13;;;2.10;;
45354;SDS011;31091;48.758;9.150;2024-03-06T03:55:09;4.30;;;1.90;;
45354;SDS011;31091;48.758;9.150;2024-03-06T04:27:53;5.40;;;2.53;;
45354;SDS011;31091;48.758;9.150;2024-03-06T04:41:23;6.40;;;2.75;;
45354;SDS011;31091;48.758;9.150;2024-03-06T04:44:37;8.43;;;3.90;;
45354;SDS011;31091;48.758;9.150;2024-03-06T04:54:11;8.18;;;3.20;;
45354;SDS011;31091;48.758;9.150;2024-03-06T05:11:00;7.75;;;3.10;;
45354;SDS011;31091;48.758;9.150;2024-03-06T05:17:05;5.43;;;2.33;;
45354;SDS011;31091;48.758;9.150;2024-03-06T05:26:59;5.57;;;3.38;;
45354;SDS011;31091;48.758;9.150;2024-03-06T05:29:45;4.88;;;2.80;;
45354;SDS011;31091;48.758;9.150;2024-03-06T05:35:55;6.90;;;3.45;;
45354;SDS011;31091;48.758;9.150;2024-03-06T05:38:58;10.15;;;4.13;;
45354;SDS011;31091;48.758;9.150;2024-03-06T05:45:04;8.52;;;4.07;;
45354;SDS011;31091;48.758;9.150;2024-03-06T05:48:01;7.95;;;3.63;;
45354;SDS011;31091;48.758;9.150;2024-03-06T05:50:49;6.03;;;3.60;;
45354;SDS011;31091;48.758;9.150;2024-03-06T05:53:38;6.38;;;4.15;;
45354;SDS011;31091;48.758;9.150;2024-03-06T05:56:25;9.27;;;4.78;;
45354;SDS011;31091;48.758;9.150;2024-03-06T05:59:13;8.68;;;4.10;;
45354;SDS011;31091;48.758;9.150;2024-03-06T06:02:05;7.13;;;4.20;;
45354;SDS011;31091;48.758;9.150;2024-03-06T06:04:50;7.72;;;4.25;;
45354;SDS011;31091;48.758;9.150;2024-03-06T06:07:36;9.65;;;4.78;;
45354;SDS011;31091;48.758;9.150;2024-03-06T06:10:26;8.88;;;4.50;;
45354;SDS011;31091;48.758;9.150;2024-03-06T06:13:11;11.68;;;4.97;;
45354;SDS011;31091;48.758;9.150;2024-03-06T06:15:59;10.82;;;4.82;;
45354;SDS011;31091;48.758;9.150;2024-03-06T06:18:47;8.80;;;4.95;;
45354;SDS011;31091;48.758;9.150;2024-03-06T06:21:34;9.52;;;5.43;;
45354;SDS011;31091;48.758;9.150;2024-03-06T06:24:23;10.40;;;4.60;;
45354;SDS011;31091;48.758;9.150;2024-03-06T06:27:08;10.98;;;4.18;;
45354;SDS011;31091;48.758;9.150;2024-03-06T06:29:54;7.68;;;3.88;;
45354;SDS011;31091;48.758;9.150;2024-03-06T06:32:40;12.10;;;5.68;;
45354;SDS011;31091;48.758;9.150;2024-03-06T06:35:26;9.90;;;4.43;;
45354;SDS011;31091;48.758;9.150;2024-03-06T06:38:12;10.00;;;4.22;;
45354;SDS011;31091;48.758;9.150;2024-03-06T06:40:57;7.65;;;4.47;;
45354;SDS011;31091;48.758;9.150;2024-03-06T06:43:43;8.70;;;4.75;;
45354;SDS011;31091;48.758;9.150;2024-03-06T06:46:28;7.88;;;4.25;;
45354;SDS011;31091;48.758;9.150;2024-03-06T06:49:55;12.00;;;4.53;;
45354;SDS011;31091;48.758;9.150;2024-03-06T06:52:40;10.35;;;6.13;;
45354;SDS011;31091;48.758;9.150;2024-03-06T06:55:26;9.45;;;4.70;;
45354;SDS011;31091;48.758;9.150;2024-03-06T06:58:11;7.90;;;4.47;;
45354;SDS011;31091;48.758;9.150;2024-03-06T07:00:57;11.38;;;5.03;;
45354;SDS011;31091;48.758;9.150;2024-03-06T07:03:42;9.85;;;5.65;;
45354;SDS011;31091;48.758;9.150;2024-03-06T07:06:27;10.63;;;5.22;;
45354;SDS011;31091;48.758;9.150;2024-03-06T07:09:13;12.38;;;6.20;;
45354;SDS011;31091;48.758;9.150;2024-03-06T07:12:00;9.80;;;4.93;;
45354;SDS011;31091;48.758;9.150;2024-03-06T07:14:46;7.57;;;4.47;;
45354;SDS011;31091;48.758;9.150;2024-03-06T07:17:34;12.57;;;5.60;;
45354;SDS011;31091;48.758;9.150;2024-03-06T07:20:20;7.40;;;4.35;;
45354;SDS011;31091;48.758;9.150;2024-03-06T07:23:05;7.88;;;4.32;;
45354;SDS011;31091;48.758;9.150;2024-03-06T07:25:50;7.78;;;3.97;;
45354;SDS011;31091;48.758;9.150;2024-03-06T07:28:36;8.10;;;4.70;;
45354;SDS011;31091;48.758;9.150;2024-03-06T07:31:22;9.75;;;4.85;;
45354;SDS011;31091;48.758;9.150;2024-03-06T07:34:07;7.60;;;4.32;;
45354;SDS011;31091;48.758;9.150;2024-03-06T07:36:53;8.07;;;4.63;;
45354;SDS011;31091;48.758;9.150;2024-03-06T07:39:39;12.43;;;4.95;;
45354;SDS011;31091;48.758;9.150;2024-03-06T07:42:24;11.15;;;5.22;;
45354;SDS011;31091;48.758;9.150;2024-03-06T07:45:09;8.75;;;4.93;;
45354;SDS011;31091;48.758;9.150;2024-03-06T07:47:55;9.63;;;4.93;;
45354;SDS011;31091;48.758;9.150;2024-03-06T07:50:40;6.95;;;4.28;;
45354;SDS011;31091;48.758;9.150;2024-03-06T07:53:27;7.82;;;4.35;;
45354;SDS011;31091;48.758;9.150;2024-03-06T07:56:12;11.05;;;4.72;;
45354;SDS011;31091;48.758;9.150;2024-03-06T07:58:58;8.45;;;4.75;;
45354;SDS011;31091;48.758;9.150;2024-03-06T08:01:43;12.23;;;6.50;;
45354;SDS011;31091;48.758;9.150;2024-03-06T08:04:29;13.50;;;5.50;;
45354;SDS011;31091;48.758;9.150;2024-03-06T08:07:13;11.23;;;5.50;;
45354;SDS011;31091;48.758;9.150;2024-03-06T08:10:00;8.07;;;5.05;;
45354;SDS011;31091;48.758;9.150;2024-03-06T08:12:45;13.27;;;5.20;;
45354;SDS011;31091;48.758;9.150;2024-03-06T08:15:32;9.90;;;5.22;;
45354;SDS011;31091;48.758;9.150;2024-03-06T08:18:18;9.15;;;4.85;;
45354;SDS011;31091;48.758;9.150;2024-03-06T08:21:03;8.88;;;4.40;;
45354;SDS011;31091;48.758;9.150;2024-03-06T08:23:50;9.95;;;4.97;;
45354;SDS011;31091;48.758;9.150;2024-03-06T08:26:35;8.27;;;4.93;;
45354;SDS011;31091;48.758;9.150;2024-03-06T08:29:21;13.52;;;5.43;;
45354;SDS011;31091;48.758;9.150;2024-03-06T08:32:06;8.27;;;4.38;;
45354;SDS011;31091;48.758;9.150;2024-03-06T08:34:51;6.63;;;3.95;;
45354;SDS011;31091;48.758;9.150;2024-03-06T08:37:37;7.03;;;3.88;;
45354;SDS011;31091;48.758;9.150;2024-03-06T08:40:23;9.68;;;4.57;;
45354;SDS011;31091;48.758;9.150;2024-03-06T08:43:11;14.55;;;5.97;;
45354;SDS011;31091;48.758;9.150;2024-03-06T08:45:57;12.40;;;4.82;;
45354;SDS011;31091;48.758;9.150;2024-03-06T08:48:43;7.85;;;3.97;;
45354;SDS011;31091;48.758;9.150;2024-03-06T08:51:28;9.30;;;4.55;;
45354;SDS011;31091;48.758;9.150;2024-03-06T08:54:13;7.60;;;4.22;;
45354;SDS011;31091;48.758;9.150;2024-03-06T08:56:59;6.90;;;4.53;;
45354;SDS011;31091;48.758;9.150;2024-03-06T08:59:44;8.65;;;4.50;;
45354;SDS011;31091;48.758;9.150;2024-03-06T09:02:30;12.13;;;4.43;;
45354;SDS011;31091;48.758;9.150;2024-03-06T09:05:15;6.20;;;3.60;;
45354;SDS011;31091;48.758;9.150;2024-03-06T09:08:00;9.15;;;4.18;;
45354;SDS011;31091;48.758;9.150;2024-03-06T09:10:46;7.95;;;4.82;;
45354;SDS011;31091;48.758;9.150;2024-03-06T09:13:31;8.45;;;4.55;;
45354;SDS011;31091;48.758;9.150;2024-03-06T09:16:17;10.57;;;5.72;;
45354;SDS011;31091;48.758;9.150;2024-03-06T09:19:03;8.23;;;4.18;;
45354;SDS011;31091;48.758;9.150;2024-03-06T09:21:49;8.07;;;4.78;;
45354;SDS011;31091;48.758;9.150;2024-03-06T09:24:34;6.75;;;4.13;;
45354;SDS011;31091;48.758;9.150;2024-03-06T09:27:25;9.38;;;5.10;;
45354;SDS011;31091;48.758;9.150;2024-03-06T09:30:12;6.95;;;4.05;;
45354;SDS011;31091;48.758;9.150;2024-03-06T09:32:58;8.25;;;4.80;;
45354;SDS011;31091;48.758;9.150;2024-03-06T09:35:44;7.82;;;5.00;;
45354;SDS011;31091;48.758;9.150;2024-03-06T09:38:30;8.88;;;4.28;;
45354;SDS011;31091;48.758;9.150;2024-03-06T09:41:16;7.65;;;4.65;;
45354;SDS011;31091;48.758;9.150;2024-03-06T09:44:01;11.02;;;6.05;;
45354;SDS011;31091;48.758;9.150;2024-03-06T09:46:48;10.00;;;4.90;;
45354;SDS011;31091;48.758;9.150;2024-03-06T09:49:34;7.70;;;4.78;;
45354;SDS011;31091;48.758;9.150;2024-03-06T09:52:19;6.22;;;4.68;;
45354;SDS011;31091;48.758;9.150;2024-03-06T09:55:05;9.98;;;4.50;;
45354;SDS011;31091;48.758;9.150;2024-03-06T09:57:54;7.78;;;4.38;;
45354;SDS011;31091;48.758;9.150;2024-03-06T10:00:40;7.70;;;5.13;;
45354;SDS011;31091;48.758;9.150;2024-03-06T10:03:25;12.00;;;5.10;;
45354;SDS011;31091;48.758;9.150;2024-03-06T10:06:12;8.90;;;5.82;;
45354;SDS011;31091;48.758;9.150;2024-03-06T10:09:02;13.18;;;6.28;;
45354;SDS011;31091;48.758;9.150;2024-03-06T10:11:48;9.95;;;6.00;;
45354;SDS011;31091;48.758;9.150;2024-03-06T10:14:34;10.35;;;5.72;;
45354;SDS011;31091;48.758;9.150;2024-03-06T10:17:21;10.55;;;6.32;;
45354;SDS011;31091;48.758;9.150;2024-03-06T10:20:21;10.05;;;6.60;;
45354;SDS011;31091;48.758;9.150;2024-03-06T10:23:07;9.48;;;6.07;;
45354;SDS011;31091;48.758;9.150;2024-03-06T10:25:54;11.20;;;6.78;;
45354;SDS011;31091;48.758;9.150;2024-03-06T10:28:44;10.05;;;5.93;;
45354;SDS011;31091;48.758;9.150;2024-03-06T10:31:31;9.77;;;6.43;;
45354;SDS011;31091;48.758;9.150;2024-03-06T10:34:16;11.35;;;6.80;;
45354;SDS011;31091;48.758;9.150;2024-03-06T10:37:02;10.43;;;6.28;;
45354;SDS011;31091;48.758;9.150;2024-03-06T10:39:51;9.55;;;6.93;;
45354;SDS011;31091;48.758;9.150;2024-03-06T10:42:37;10.48;;;6.63;;
45354;SDS011;31091;48.758;9.150;2024-03-06T10:45:23;11.50;;;7.47;;
45354;SDS011;31091;48.758;9.150;2024-03-06T10:48:12;11.47;;;7.10;;
45354;SDS011;31091;48.758;9.150;2024-03-06T10:50:58;13.38;;;7.55;;
45354;SDS011;31091;48.758;9.150;2024-03-06T10:53:44;13.88;;;7.85;;
45354;SDS011;31091;48.758;9.150;2024-03-06T10:56:31;13.52;;;7.95;;
45354;SDS011;31091;48.758;9.150;2024-03-06T10:59:16;11.05;;;7.50;;
45354;SDS011;31091;48.758;9.150;2024-03-06T11:02:03;11.95;;;8.23;;
45354;SDS011;31091;48.758;9.150;2024-03-06T11:04:48;12.00;;;9.50;;
45354;SDS011;31091;48.758;9.150;2024-03-06T11:07:33;14.30;;;9.45;;
45354;SDS011;31091;48.758;9.150;2024-03-06T11:10:32;20.00;;;10.45;;
45354;SDS011;31091;48.758;9.150;2024-03-06T11:16:02;15.23;;;10.00;;
45354;SDS011;31091;48.758;9.150;2024-03-06T11:18:48;14.68;;;10.20;;
45354;SDS011;31091;48.758;9.150;2024-03-06T11:21:33;14.10;;;10.30;;
45354;SDS011;31091;48.758;9.150;2024-03-06T11:24:19;15.70;;;10.70;;
45354;SDS011;31091;48.758;9.150;2024-03-06T11:27:04;13.75;;;10.27;;
45354;SDS011;31091;48.758;9.150;2024-03-06T11:32:59;16.00;;;11.88;;
45354;SDS011;31091;48.758;9.150;2024-03-06T11:38:59;16.45;;;11.25;;
45354;SDS011;31091;48.758;9.150;2024-03-06T11:44:31;18.75;;;12.45;;
45354;SDS011;31091;48.758;9.150;2024-03-06T11:47:17;16.00;;;12.02;;
45354;SDS011;31091;48.758;9.150;2024-03-06T11:50:03;18.63;;;12.18;;
45354;SDS011;31091;48.758;9.150;2024-03-06T11:52:48;19.30;;;12.48;;
45354;SDS011;31091;48.758;9.150;2024-03-06T11:55:34;17.70;;;12.38;;
45354;SDS011;31091;48.758;9.150;2024-03-06T11:58:19;16.13;;;13.10;;
45354;SDS011;31091;48.758;9.150;2024-03-06T12:01:05;17.55;;;13.73;;
45354;SDS011;31091;48.758;9.150;2024-03-06T12:03:57;18.27;;;13.50;;
45354;SDS011;31091;48.758;9.150;2024-03-06T12:06:43;17.77;;;12.93;;
45354;SDS011;31091;48.758;9.150;2024-03-06T12:09:28;17.95;;;13.15;;
45354;SDS011;31091;48.758;9.150;2024-03-06T12:12:13;19.20;;;13.38;;
45354;SDS011;31091;48.758;9.150;2024-03-06T12:14:59;19.10;;;12.20;;
45354;SDS011;31091;48.758;9.150;2024-03-06T12:17:45;17.48;;;13.35;;
45354;SDS011;31091;48.758;9.150;2024-03-06T12:20:39;18.35;;;13.00;;
45354;SDS011;31091;48.758;9.150;2024-03-06T12:23:25;18.83;;;14.57;;
45354;SDS011;31091;48.758;9.150;2024-03-06T12:26:11;20.70;;;14.13;;
45354;SDS011;31091;48.758;9.150;2024-03-06T12:29:09;18.85;;;14.13;;
45354;SDS011;31091;48.758;9.150;2024-03-06T12:31:55;19.67;;;13.65;;
45354;SDS011;31091;48.758;9.150;2024-03-06T12:34:42;18.75;;;13.48;;
45354;SDS011;31091;48.758;9.150;2024-03-06T12:37:33;19.58;;;14.70;;
45354;SDS011;31091;48.758;9.150;2024-03-06T12:40:19;20.88;;;14.93;;
45354;SDS011;31091;48.758;9.150;2024-03-06T12:43:04;20.83;;;15.50;;
45354;SDS011;31091;48.758;9.150;2024-03-06T12:45:50;20.90;;;14.80;;
45354;SDS011;31091;48.758;9.150;2024-03-06T12:48:35;18.35;;;12.85;;
45354;SDS011;31091;48.758;9.150;2024-03-06T12:51:21;18.67;;;14.73;;
45354;SDS011;31091;48.758;9.150;2024-03-06T12:54:07;20.80;;;15.68;;
45354;SDS011;31091;48.758;9.150;2024-03-06T12:56:53;18.02;;;15.00;;
45354;SDS011;31091;48.758;9.150;2024-03-06T12:59:38;22.20;;;16.45;;
45354;SDS011;31091;48.758;9.150;2024-03-06T13:02:24;17.60;;;13.80;;
45354;SDS011;31091;48.758;9.150;2024-03-06T13:05:09;20.80;;;15.60;;
45354;SDS011;31091;48.758;9.150;2024-03-06T13:07:55;20.17;;;14.80;;
45354;SDS011;31091;48.758;9.150;2024-03-06T13:10:41;21.35;;;15.88;;
45354;SDS011;31091;48.758;9.150;2024-03-06T13:13:25;21.30;;;15.60;;
45354;SDS011;31091;48.758;9.150;2024-03-06T13:16:09;19.65;;;14.52;;
45354;SDS011;31091;48.758;9.150;2024-03-06T13:18:56;22.70;;;16.15;;
45354;SDS011;31091;48.758;9.150;2024-03-06T13:21:42;21.33;;;14.30;;
45354;SDS011;31091;48.758;9.150;2024-03-06T13:24:27;20.25;;;13.52;;
45354;SDS011;31091;48.758;9.150;2024-03-06T13:27:12;26.35;;;14.70;;
45354;SDS011;31091;48.758;9.150;2024-03-06T13:29:57;17.00;;;13.45;;
45354;SDS011;31091;48.758;9.150;2024-03-06T13:32:43;18.27;;;13.75;;
45354;SDS011;31091;48.758;9.150;2024-03-06T13:35:28;17.60;;;12.40;;
45354;SDS011;31091;48.758;9.150;2024-03-06T13:38:13;19.92;;;12.60;;
45354;SDS011;31091;48.758;9.150;2024-03-06T13:40:59;22.48;;;15.07;;
45354;SDS011;31091;48.758;9.150;2024-03-06T13:43:47;18.35;;;13.45;;
45354;SDS011;31091;48.758;9.150;2024-03-06T13:46:32;17.70;;;12.85;;
45354;SDS011;31091;48.758;9.150;2024-03-06T13:52:40;18.88;;;13.75;;
45354;SDS011;31091;48.758;9.150;2024-03-06T13:55:26;16.95;;;12.02;;
45354;SDS011;31091;48.758;9.150;2024-03-06T13:58:16;17.15;;;13.23;;
45354;SDS011;31091;48.758;9.150;2024-03-06T14:01:01;18.63;;;12.35;;
45354;SDS011;31091;48.758;9.150;2024-03-06T14:03:47;17.52;;;13.45;;
45354;SDS011;31091;48.758;9.150;2024-03-06T14:06:33;17.45;;;13.18;;
45354;SDS011;31091;48.758;9.150;2024-03-06T14:09:19;17.90;;;13.18;;
45354;SDS011;31091;48.758;9.150;2024-03-06T14:12:04;18.00;;;14.00;;
45354;SDS011;31091;48.758;9.150;2024-03-06T14:14:49;17.50;;;13.10;;
45354;SDS011;31091;48.758;9.150;2024-03-06T14:17:35;17.85;;;14.27;;
45354;SDS011;31091;48.758;9.150;2024-03-06T14:20:20;17.90;;;12.98;;
45354;SDS011;31091;48.758;9.150;2024-03-06T14:23:06;19.63;;;14.25;;
45354;SDS011;31091;48.758;9.150;2024-03-06T14:25:52;19.40;;;14.02;;
45354;SDS011;31091;48.758;9.150;2024-03-06T14:28:40;16.67;;;12.95;;
45354;SDS011;31091;48.758;9.150;2024-03-06T14:31:25;18.50;;;13.68;;
45354;SDS011;31091;48.758;9.150;2024-03-06T14:34:11;17.45;;;13.02;;
45354;SDS011;31091;48.758;9.150;2024-03-06T14:36:56;19.50;;;12.88;;
45354;SDS011;31091;48.758;9.150;2024-03-06T14:39:41;20.30;;;14.10;;
45354;SDS011;31091;48.758;9.150;2024-03-06T14:42:27;19.70;;;13.73;;
45354;SDS011;31091;48.758;9.150;2024-03-06T14:45:12;16.20;;;11.68;;
45354;SDS011;31091;48.758;9.150;2024-03-06T14:47:57;19.17;;;13.20;;
45354;SDS011;31091;48.758;9.150;2024-03-06T14:50:43;18.17;;;13.38;;
45354;SDS011;31091;48.758;9.150;2024-03-06T14:53:28;17.95;;;14.38;;
45354;SDS011;31091;48.758;9.150;2024-03-06T14:56:15;19.33;;;14.13;;
45354;SDS011;31091;48.758;9.150;2024-03-06T14:59:01;21.45;;;14.10;;
45354;SDS011;31091;48.758;9.150;2024-03-06T15:01:46;23.80;;;14.73;;
45354;SDS011;31091;48.758;9.150;2024-03-06T15:04:32;15.77;;;11.52;;
45354;SDS011;31091;48.758;9.150;2024-03-06T15:07:18;19.23;;;14.63;;
45354;SDS011;31091;48.758;9.150;2024-03-06T15:10:04;16.80;;;12.90;;
45354;SDS011;31091;48.758;9.150;2024-03-06T15:12:52;18.40;;;13.05;;
45354;SDS011;31091;48.758;9.150;2024-03-06T15:15:38;17.80;;;13.27;;
45354;SDS011;31091;48.758;9.150;2024-03-06T15:18:24;17.52;;;12.75;;
45354;SDS011;31091;48.758;9.150;2024-03-06T15:21:10;17.48;;;12.60;;
45354;SDS011;31091;48.758;9.150;2024-03-06T15:23:55;15.82;;;12.13;;
45354;SDS011;31091;48.758;9.150;2024-03-06T15:26:40;16.40;;;12.57;;
45354;SDS011;31091;48.758;9.150;2024-03-06T15:29:26;15.57;;;11.32;;
45354;SDS011;31091;48.758;9.150;2024-03-06T15:32:11;16.77;;;12.63;;
45354;SDS011;31091;48.758;9.150;2024-03-06T15:34:56;19.42;;;14.18;;
45354;SDS011;31091;48.758;9.150;2024-03-06T15:37:43;16.38;;;11.95;;
45354;SDS011;31091;48.758;9.150;2024-03-06T15:40:28;19.52;;;13.18;;
45354;SDS011;31091;48.758;9.150;2024-03-06T15:43:14;21.42;;;13.60;;
45354;SDS011;31091;48.758;9.150;2024-03-06T15:45:59;18.33;;;13.00;;
45354;SDS011;31091;48.758;9.150;2024-03-06T15:48:44;17.20;;;12.43;;
45354;SDS011;31091;48.758;9.150;2024-03-06T15:51:30;20.88;;;14.68;;
45354;SDS011;31091;48.758;9.150;2024-03-06T15:54:15;21.48;;;14.88;;
45354;SDS011;31091;48.758;9.150;2024-03-06T15:57:00;21.63;;;16.05;;
45354;SDS011;31091;48.758;9.150;2024-03-06T15:59:46;24.70;;;16.13;;
45354;SDS011;31091;48.758;9.150;2024-03-06T16:02:32;22.58;;;15.65;;
45354;SDS011;31091;48.758;9.150;2024-03-06T16:05:17;21.80;;;15.35;;
45354;SDS011;31091;48.758;9.150;2024-03-06T16:08:02;20.67;;;14.43;;
45354;SDS011;31091;48.758;9.150;2024-03-06T16:10:48;21.98;;;14.30;;
45354;SDS011;31091;48.758;9.150;2024-03-06T16:13:34;22.98;;;15.93;;
45354;SDS011;31091;48.758;9.150;2024-03-06T16:16:19;25.40;;;17.10;;
45354;SDS011;31091;48.758;9.150;2024-03-06T16:19:04;26.27;;;17.83;;
45354;SDS011;31091;48.758;9.150;2024-03-06T16:21:49;24.10;;;16.65;;
45354;SDS011;31091;48.758;9.150;2024-03-06T16:24:36;24.58;;;17.75;;
45354;SDS011;31091;48.758;9.150;2024-03-06T16:27:21;25.38;;;16.50;;
45354;SDS011;31091;48.758;9.150;2024-03-06T16:30:14;23.52;;;16.58;;
45354;SDS011;31091;48.758;9.150;2024-03-06T16:37:00;28.42;;;18.75;;
45354;SDS011;31091;48.758;9.150;2024-03-06T16:39:45;25.23;;;17.23;;
45354;SDS011;31091;48.758;9.150;2024-03-06T16:42:32;28.17;;;17.90;;
45354;SDS011;31091;48.758;9.150;2024-03-06T16:45:18;25.70;;;17.15;;
45354;SDS011;31091;48.758;9.150;2024-03-06T16:48:03;25.15;;;17.40;;
45354;SDS011;31091;48.758;9.150;2024-03-06T16:50:49;26.83;;;19.98;;
45354;SDS011;31091;48.758;9.150;2024-03-06T16:53:34;27.65;;;18.55;;
45354;SDS011;31091;48.758;9.150;2024-03-06T16:56:21;29.13;;;19.17;;
45354;SDS011;31091;48.758;9.150;2024-03-06T16:59:07;26.50;;;17.38;;
45354;SDS011;31091;48.758;9.150;2024-03-06T17:01:53;28.58;;;20.05;;
45354;SDS011;31091;48.758;9.150;2024-03-06T17:04:38;27.10;;;18.15;;
45354;SDS011;31091;48.758;9.150;2024-03-06T17:07:24;27.63;;;18.83;;
45354;SDS011;31091;48.758;9.150;2024-03-06T17:10:09;27.42;;;18.88;;
45354;SDS011;31091;48.758;9.150;2024-03-06T17:12:55;30.73;;;19.40;;
45354;SDS011;31091;48.758;9.150;2024-03-06T17:15:41;26.40;;;17.70;;
45354;SDS011;31091;48.758;9.150;2024-03-06T17:18:27;28.73;;;18.73;;
45354;SDS011;31091;48.758;9.150;2024-03-06T17:21:12;32.92;;;20.27;;
45354;SDS011;31091;48.758;9.150;2024-03-06T17:23:57;26.80;;;19.95;;
45354;SDS011;31091;48.758;9.150;2024-03-06T17:26:43;28.48;;;21.00;;
45354;SDS011;31091;48.758;9.150;2024-03-06T17:29:28;28.52;;;19.05;;
45354;SDS011;31091;48.758;9.150;2024-03-06T17:32:13;26.80;;;18.50;;
45354;SDS011;31091;48.758;9.150;2024-03-06T17:34:59;28.67;;;20.95;;
45354;SDS011;31091;48.758;9.150;2024-03-06T17:37:45;28.27;;;19.13;;
45354;SDS011;31091;48.758;9.150;2024-03-06T17:40:31;26.67;;;17.73;;
45354;SDS011;31091;48.758;9.150;2024-03-06T17:43:16;26.70;;;18.83;;
45354;SDS011;31091;48.758;9.150;2024-03-06T17:46:01;27.10;;;18.75;;
45354;SDS011;31091;48.758;9.150;2024-03-06T17:48:47;28.45;;;19.15;;
45354;SDS011;31091;48.758;9.150;2024-03-06T17:51:33;27.58;;;18.75;;
45354;SDS011;31091;48.758;9.150;2024-03-06T17:54:20;27.00;;;19.23;;
45354;SDS011;31091;48.758;9.150;2024-03-06T17:57:05;26.63;;;18.17;;
45354;SDS011;31091;48.758;9.150;2024-03-06T17:59:50;27.25;;;18.58;;
45354;SDS011;31091;48.758;9.150;2024-03-06T18:02:36;27.10;;;17.77;;
45354;SDS011;31091;48.758;9.150;2024-03-06T18:05:21;27.20;;;17.85;;
45354;SDS011;31091;48.758;9.150;2024-03-06T18:08:07;24.25;;;17.33;;
45354;SDS011;31091;48.758;9.150;2024-03-06T18:10:53;24.85;;;17.52;;
45354;SDS011;31091;48.758;9.150;2024-03-06T18:13:38;23.90;;;17.15;;
45354;SDS011;31091;48.758;9.150;2024-03-06T18:16:24;24.33;;;17.30;;
45354;SDS011;31091;48.758;9.150;2024-03-06T18:19:09;26.48;;;16.92;;
45354;SDS011;31091;48.758;9.150;2024-03-06T18:21:54;23.23;;;17.00;;
45354;SDS011;31091;48.758;9.150;2024-03-06T18:24:40;25.10;;;16.83;;
45354;SDS011;31091;48.758;9.150;2024-03-06T18:27:25;25.98;;;17.33;;
45354;SDS011;31091;48.758;9.150;2024-03-06T18:30:10;25.27;;;17.73;;
45354;SDS011;31091;48.758;9.150;2024-03-06T18:32:56;27.10;;;17.90;;
45354;SDS011;31091;48.758;9.150;2024-03-06T18:35:41;28.27;;;17.55;;
45354;SDS011;31091;48.758;9.150;2024-03-06T18:38:27;27.33;;;17.85;;
45354;SDS011;31091;48.758;9.150;2024-03-06T18:41:12;23.85;;;16.67;;
45354;SDS011;31091;48.758;9.150;2024-03-06T18:43:59;26.85;;;17.90;;
45354;SDS011;31091;48.758;9.150;2024-03-06T18:46:45;25.05;;;17.42;;
45354;SDS011;31091;48.758;9.150;2024-03-06T18:49:30;26.23;;;18.42;;
45354;SDS011;31091;48.758;9.150;2024-03-06T18:52:15;23.92;;;17.02;;
45354;SDS011;31091;48.758;9.150;2024-03-06T18:55:01;27.17;;;19.08;;
45354;SDS011;31091;48.758;9.150;2024-03-06T18:57:46;24.55;;;16.83;;
45354;SDS011;31091;48.758;9.150;2024-03-06T19:00:32;26.00;;;18.83;;
45354;SDS011;31091;48.758;9.150;2024-03-06T19:03:19;28.30;;;19.30;;
45354;SDS011;31091;48.758;9.150;2024-03-06T19:06:06;25.08;;;17.75;;
45354;SDS011;31091;48.758;9.150;2024-03-06T19:08:51;25.85;;;17.70;;
45354;SDS011;31091;48.758;9.150;2024-03-06T19:11:36;24.23;;;18.23;;
45354;SDS011;31091;48.758;9.150;2024-03-06T19:14:21;31.27;;;20.40;;
45354;SDS011;31091;48.758;9.150;2024-03-06T19:17:07;31.02;;;20.33;;
45354;SDS011;31091;48.758;9.150;2024-03-06T19:19:52;27.95;;;18.85;;
45354;SDS011;31091;48.758;9.150;2024-03-06T19:22:38;28.67;;;20.85;;
45354;SDS011;31091;48.758;9.150;2024-03-06T19:25:23;29.23;;;19.58;;
45354;SDS011;31091;48.758;9.150;2024-03-06T19:28:09;31.20;;;21.85;;
45354;SDS011;31091;48.758;9.150;2024-03-06T19:30:54;30.95;;;21.33;;
45354;SDS011;31091;48.758;9.150;2024-03-06T19:33:39;29.35;;;18.50;;
45354;SDS011;31091;48.758;9.150;2024-03-06T19:36:24;32.13;;;19.73;;
45354;SDS011;31091;48.758;9.150;2024-03-06T19:39:10;32.05;;;21.55;;
45354;SDS011;31091;48.758;9.150;2024-03-06T19:41:55;31.33;;;20.83;;
45354;SDS011;31091;48.758;9.150;2024-03-06T19:44:45;28.33;;;19.58;;
45354;SDS011;31091;48.758;9.150;2024-03-06T19:47:31;26.40;;;19.08;;
45354;SDS011;31091;48.758;9.150;2024-03-06T19:50:16;31.05;;;20.67;;
45354;SDS011;31091;48.758;9.150;2024-03-06T19:53:02;30.25;;;21.13;;
45354;SDS011;31091;48.758;9.150;2024-03-06T19:55:47;29.58;;;19.92;;
45354;SDS011;31091;48.758;9.150;2024-03-06T19:58:33;32.63;;;20.42;;
45354;SDS011;31091;48.758;9.150;2024-03-06T20:01:18;31.52;;;20.02;;
45354;SDS011;31091;48.758;9.150;2024-03-06T20:04:04;27.75;;;20.35;;
45354;SDS011;31091;48.758;9.150;2024-03-06T20:06:50;31.35;;;21.08;;
45354;SDS011;31091;48.758;9.150;2024-03-06T20:09:36;31.02;;;21.42;;
45354;SDS011;31091;48.758;9.150;2024-03-06T20:12:21;32.90;;;21.30;;
45354;SDS011;31091;48.758;9.150;2024-03-06T20:15:06;27.27;;;18.80;;
45354;SDS011;31091;48.758;9.150;2024-03-06T20:17:52;30.63;;;21.75;;
45354;SDS011;31091;48.758;9.150;2024-03-06T20:20:37;34.58;;;22.75;;
45354;SDS011;31091;48.758;9.150;2024-03-06T20:23:22;31.05;;;20.27;;
45354;SDS011;31091;48.758;9.150;2024-03-06T20:26:08;33.13;;;21.98;;
45354;SDS011;31091;48.758;9.150;2024-03-06T20:28:54;29.20;;;20.30;;
45354;SDS011;31091;48.758;9.150;2024-03-06T20:31:41;28.35;;;20.20;;
45354;SDS011;31091;48.758;9.150;2024-03-06T20:34:27;29.83;;;20.08;;
45354;SDS011;31091;48.758;9.150;2024-03-06T20:37:15;36.85;;;20.35;;
45354;SDS011;31091;48.758;9.150;2024-03-06T20:40:01;29.55;;;20.45;;
45354;SDS011;31091;48.758;9.150;2024-03-06T20:42:46;29.20;;;19.42;;
45354;SDS011;31091;48.758;9.150;2024-03-06T20:45:31;31.35;;;21.10;;
45354;SDS011;31091;48.758;9.150;2024-03-06T20:48:17;29.40;;;19.52;;
45354;SDS011;31091;48.758;9.150;2024-03-06T20:51:03;30.17;;;20.00;;
45354;SDS011;31091;48.758;9.150;2024-03-06T20:53:48;28.65;;;20.13;;
45354;SDS011;31091;48.758;9.150;2024-03-06T20:56:33;31.35;;;20.83;;
45354;SDS011;31091;48.758;9.150;2024-03-06T20:59:18;32.65;;;21.05;;
45354;SDS011;31091;48.758;9.150;2024-03-06T21:02:05;30.63;;;20.15;;
45354;SDS011;31091;48.758;9.150;2024-03-06T21:04:50;30.65;;;19.88;;
45354;SDS011;31091;48.758;9.150;2024-03-06T21:07:36;33.33;;;21.13;;
45354;SDS011;31091;48.758;9.150;2024-03-06T21:10:21;32.60;;;21.58;;
45354;SDS011;31091;48.758;9.150;2024-03-06T21:13:07;29.52;;;20.55;;
45354;SDS011;31091;48.758;9.150;2024-03-06T21:15:53;32.05;;;21.60;;
45354;SDS011;31091;48.758;9.150;2024-03-06T21:18:38;31.80;;;21.02;;
45354;SDS011;31091;48.758;9.150;2024-03-06T21:21:24;33.15;;;20.45;;
45354;SDS011;31091;48.758;9.150;2024-03-06T21:24:09;30.08;;;21.20;;
45354;SDS011;31091;48.758;9.150;2024-03-06T21:26:54;32.03;;;21.23;;
45354;SDS011;31091;48.758;9.150;2024-03-06T21:29:38;36.28;;;22.30;;
45354;SDS011;31091;48.758;9.150;2024-03-06T21:32:23;31.50;;;20.95;;
45354;SDS011;31091;48.758;9.150;2024-03-06T21:35:09;32.20;;;21.20;;
45354;SDS011;31091;48.758;9.150;2024-03-06T21:37:55;35.42;;;20.30;;